Warning: Javascript must be enabled to use all the features on this page!


Page Loading - Please Wait...

Click to hideNews Bulletins

Peak Streamflow for the Nation

USGS 03117000 Tuscarawas River at Massillon OH

Stark County, Ohio
Hydrologic Unit Code 05040001
Latitude  40°47'15", Longitude  81°31'23" NAD83
Drainage area 508  square miles
Contributing drainage area 508  square miles
Gage datum 911.40 feet above NAVD88
Output formats
Table
Graph
Tab-separated file
peakfq (watstore) format
Reselect output format
Water
Year
Date Gage
Height
(feet)
Stream-
flow
(cfs)
1939 1939-03-14 10.02 5,350
1940 1940-03-05 11.39 6,940
1941 1940-12-30 6.18 2,280
1942 1942-04-11 7.50 3,350
1943 1943-06-01 9.82 5,300
1944 1944-04-13 8.40 4,030
1945 1945-03-21 8.74 4,280
1946 1946-05-29 6.86 2,910
1947 1947-06-03 10.16 5,200
1948 1948-02-15 7.70 3,340
1949 1949-01-29 7.20 3,000
1950 1950-02-15 8.92 4,220
1951 1951-02-22 7.95 3,550
1952 1952-01-28 10.52 5,420
1953 1953-05-24 7.07 2,940
1954 1954-04-29 6.06 2,320
1955 1955-03-23 7.35 3,140
1956 1956-02-26 8.70 4,080
1957 1957-04-06 8.65 4,000
1958 1958-08-01 10.74 5,580
1959 1959-01-22 13.46 7,220
1960 1960-03-30 7.77 3,350
1961 1961-07-31 8.48 3,520
1962 1962-02-28 7.23 2,760
1963 1963-03-06 9.47 4,200
1964 1964-03-10 10.74 5,140
1965 1965-01-26 6.34 2,300
1966 1966-02-13 6.80 2,530
1967 1967-03-12 5.98 2,120
1968 1968-02-02 9.61 4,300
1969 1969-07-05 16.43 10,700
1970 1970-06-16 10.10 4,220
1971 1971-02-22 8.95 3,920
1972 1972-07-16 8.22 3,290
1973 1973-03-15 8.32 3,420
1974 1974-03-10 9.57 4,270
1975 1975-02-25 10.59 5,030
1976 1976-02-18 10.93 5,280
1977 1977-04-03 9.56 3,880
1978 1977-12-15 11.65 6,320
1979 1979-09-15 15.34 9,070
1980 1980-03-08 9.70 4,050
1981 1981-02-20 11.87 5,510
1982 1982-02-01 9.65 4,020
1983 1983-05-03 7.92 2,960
1984 1984-03-22 10.85 4,800
1985 1985-02-25 11.56 5,290
1986 1985-12-12 9.60 3,990
1987 1987-04-07 9.94 4,210
1988 1988-09-04 7.79 2,890
1989 1989-06-15 9.67 4,030
1990 1990-02-16 9.95 4,220
1991 1990-12-31 12.52 6,260
1992 1992-07-16 8.51 3,300
1993 1993-03-05 9.80 4,120
1994 1994-04-13 12.77 6,490
1995 1995-01-16 10.26 4,440
1996 1996-05-12 11.92 5,730
1997 1997-06-02 11.25 5,200
1998 1998-01-09 9.13 3,680
1999 1999-01-24 11.45 5,350
2000 2000-04-08 9.37 3,840
2001 2000-12-18 9.58 3,970
2002 2002-04-15 8.47 3,280
2003 2003-07-28 9.98 4,240
2004 2004-05-24 11.78 5,240
2005 2005-01-06 12.83 6,540
2006 2006-06-24 9.72 3,830
2007 2007-08-22 12.87 5,990
2008 2008-02-06 13.20 6,360
2009 2009-02-12 10.29 4,200
2010 2010-03-23 9.32 3,600
2011 2011-03-01 13.24 6,390
2012 2011-12-07 10.83 4,580
2013 2013-07-12 12.38 5,700
2014 2013-12-23 11.62 5,200
2015 2015-03-15 12.38 5,750
2016 2015-12-29 9.91 3,950
2017 2017-01-13 10.94 4,820
2018 2018-04-16 12.53 6,510
2019 2019-06-18 14.95 8,910
2020 2020-03-20 16.14 4,470
2021 2021-05-11   5,130